sensor_id;sensor_type;location;lat;lon;timestamp;P1;durP1;ratioP1;P2;durP2;ratioP2
15952;SDS011;8075;47.766;8.846;2024-02-21T00:00:56;5.03;;;3.50;;
15952;SDS011;8075;47.766;8.846;2024-02-21T00:03:22;6.60;;;3.15;;
15952;SDS011;8075;47.766;8.846;2024-02-21T00:05:48;6.55;;;3.03;;
15952;SDS011;8075;47.766;8.846;2024-02-21T00:08:14;6.97;;;3.37;;
15952;SDS011;8075;47.766;8.846;2024-02-21T00:10:40;5.63;;;2.90;;
15952;SDS011;8075;47.766;8.846;2024-02-21T00:13:06;4.70;;;3.00;;
15952;SDS011;8075;47.766;8.846;2024-02-21T00:15:32;4.00;;;2.80;;
15952;SDS011;8075;47.766;8.846;2024-02-21T00:17:58;6.30;;;2.88;;
15952;SDS011;8075;47.766;8.846;2024-02-21T00:20:24;6.47;;;3.10;;
15952;SDS011;8075;47.766;8.846;2024-02-21T00:22:51;4.90;;;2.80;;
15952;SDS011;8075;47.766;8.846;2024-02-21T00:25:17;5.25;;;2.60;;
15952;SDS011;8075;47.766;8.846;2024-02-21T00:27:43;4.87;;;2.80;;
15952;SDS011;8075;47.766;8.846;2024-02-21T00:30:09;4.35;;;2.67;;
15952;SDS011;8075;47.766;8.846;2024-02-21T00:32:37;15.10;;;6.32;;
15952;SDS011;8075;47.766;8.846;2024-02-21T00:35:03;4.95;;;3.22;;
15952;SDS011;8075;47.766;8.846;2024-02-21T00:37:30;4.43;;;2.75;;
15952;SDS011;8075;47.766;8.846;2024-02-21T00:39:57;5.30;;;3.10;;
15952;SDS011;8075;47.766;8.846;2024-02-21T00:42:23;4.57;;;2.97;;
15952;SDS011;8075;47.766;8.846;2024-02-21T00:44:49;17.15;;;8.57;;
15952;SDS011;8075;47.766;8.846;2024-02-21T00:47:15;22.70;;;11.25;;
15952;SDS011;8075;47.766;8.846;2024-02-21T00:49:41;14.30;;;6.73;;
15952;SDS011;8075;47.766;8.846;2024-02-21T00:52:07;8.73;;;5.50;;
15952;SDS011;8075;47.766;8.846;2024-02-21T00:54:33;5.65;;;3.42;;
15952;SDS011;8075;47.766;8.846;2024-02-21T00:56:59;6.30;;;3.28;;
15952;SDS011;8075;47.766;8.846;2024-02-21T00:59:24;3.75;;;2.65;;
15952;SDS011;8075;47.766;8.846;2024-02-21T01:01:51;4.20;;;2.63;;
15952;SDS011;8075;47.766;8.846;2024-02-21T01:04:16;5.45;;;2.83;;
15952;SDS011;8075;47.766;8.846;2024-02-21T01:06:42;4.65;;;2.40;;
15952;SDS011;8075;47.766;8.846;2024-02-21T01:09:09;5.20;;;2.78;;
15952;SDS011;8075;47.766;8.846;2024-02-21T01:11:35;3.40;;;2.60;;
15952;SDS011;8075;47.766;8.846;2024-02-21T01:14:01;3.72;;;2.58;;
15952;SDS011;8075;47.766;8.846;2024-02-21T01:16:27;4.30;;;2.45;;
15952;SDS011;8075;47.766;8.846;2024-02-21T01:18:53;3.47;;;2.38;;
15952;SDS011;8075;47.766;8.846;2024-02-21T01:21:19;5.13;;;2.58;;
15952;SDS011;8075;47.766;8.846;2024-02-21T01:23:45;3.97;;;2.60;;
15952;SDS011;8075;47.766;8.846;2024-02-21T01:26:11;4.07;;;2.40;;
15952;SDS011;8075;47.766;8.846;2024-02-21T01:28:39;4.55;;;2.45;;
15952;SDS011;8075;47.766;8.846;2024-02-21T01:31:05;4.53;;;2.80;;
15952;SDS011;8075;47.766;8.846;2024-02-21T01:33:32;4.28;;;2.33;;
15952;SDS011;8075;47.766;8.846;2024-02-21T01:36:02;5.78;;;2.67;;
15952;SDS011;8075;47.766;8.846;2024-02-21T01:38:29;3.70;;;2.60;;
15952;SDS011;8075;47.766;8.846;2024-02-21T01:40:57;4.75;;;2.60;;
15952;SDS011;8075;47.766;8.846;2024-02-21T01:43:22;3.63;;;2.83;;
15952;SDS011;8075;47.766;8.846;2024-02-21T01:45:50;4.03;;;2.40;;
15952;SDS011;8075;47.766;8.846;2024-02-21T01:48:17;3.53;;;2.40;;
15952;SDS011;8075;47.766;8.846;2024-02-21T01:50:44;4.95;;;2.80;;
15952;SDS011;8075;47.766;8.846;2024-02-21T01:53:10;5.07;;;2.20;;
15952;SDS011;8075;47.766;8.846;2024-02-21T01:55:42;5.20;;;2.28;;
15952;SDS011;8075;47.766;8.846;2024-02-21T01:58:08;5.95;;;2.53;;
15952;SDS011;8075;47.766;8.846;2024-02-21T02:00:34;4.13;;;2.57;;
15952;SDS011;8075;47.766;8.846;2024-02-21T02:03:00;3.90;;;2.40;;
15952;SDS011;8075;47.766;8.846;2024-02-21T02:05:27;4.28;;;2.50;;
15952;SDS011;8075;47.766;8.846;2024-02-21T02:07:53;4.82;;;2.55;;
15952;SDS011;8075;47.766;8.846;2024-02-21T02:10:19;5.22;;;3.38;;
15952;SDS011;8075;47.766;8.846;2024-02-21T02:12:45;3.72;;;2.60;;
15952;SDS011;8075;47.766;8.846;2024-02-21T02:15:11;4.50;;;2.50;;
15952;SDS011;8075;47.766;8.846;2024-02-21T02:17:37;3.95;;;2.22;;
15952;SDS011;8075;47.766;8.846;2024-02-21T02:20:03;4.80;;;2.47;;
15952;SDS011;8075;47.766;8.846;2024-02-21T02:22:29;6.05;;;3.22;;
15952;SDS011;8075;47.766;8.846;2024-02-21T02:24:57;4.97;;;3.00;;
15952;SDS011;8075;47.766;8.846;2024-02-21T02:27:23;6.20;;;3.47;;
15952;SDS011;8075;47.766;8.846;2024-02-21T02:29:49;5.50;;;2.97;;
15952;SDS011;8075;47.766;8.846;2024-02-21T02:32:16;5.28;;;2.90;;
15952;SDS011;8075;47.766;8.846;2024-02-21T02:34:42;4.88;;;2.35;;
15952;SDS011;8075;47.766;8.846;2024-02-21T02:37:08;3.73;;;2.57;;
15952;SDS011;8075;47.766;8.846;2024-02-21T02:39:34;4.72;;;2.63;;
15952;SDS011;8075;47.766;8.846;2024-02-21T02:42:01;5.30;;;2.53;;
15952;SDS011;8075;47.766;8.846;2024-02-21T02:44:27;4.72;;;2.30;;
15952;SDS011;8075;47.766;8.846;2024-02-21T02:46:53;4.85;;;2.50;;
15952;SDS011;8075;47.766;8.846;2024-02-21T02:49:19;4.23;;;2.40;;
15952;SDS011;8075;47.766;8.846;2024-02-21T02:51:46;5.75;;;2.67;;
15952;SDS011;8075;47.766;8.846;2024-02-21T02:54:12;4.38;;;2.40;;
15952;SDS011;8075;47.766;8.846;2024-02-21T02:56:38;5.70;;;2.72;;
15952;SDS011;8075;47.766;8.846;2024-02-21T02:59:04;6.65;;;2.65;;
15952;SDS011;8075;47.766;8.846;2024-02-21T03:01:33;3.97;;;2.38;;
15952;SDS011;8075;47.766;8.846;2024-02-21T03:03:59;4.57;;;2.50;;
15952;SDS011;8075;47.766;8.846;2024-02-21T03:06:25;3.88;;;2.38;;
15952;SDS011;8075;47.766;8.846;2024-02-21T03:08:51;5.35;;;2.40;;
15952;SDS011;8075;47.766;8.846;2024-02-21T03:11:19;5.68;;;2.40;;
15952;SDS011;8075;47.766;8.846;2024-02-21T03:13:46;4.03;;;2.40;;
15952;SDS011;8075;47.766;8.846;2024-02-21T03:16:12;3.17;;;2.22;;
15952;SDS011;8075;47.766;8.846;2024-02-21T03:18:38;4.18;;;2.22;;
15952;SDS011;8075;47.766;8.846;2024-02-21T03:21:04;3.90;;;2.38;;
15952;SDS011;8075;47.766;8.846;2024-02-21T03:23:30;5.18;;;2.45;;
15952;SDS011;8075;47.766;8.846;2024-02-21T03:25:56;3.83;;;2.40;;
15952;SDS011;8075;47.766;8.846;2024-02-21T03:28:22;4.07;;;2.10;;
15952;SDS011;8075;47.766;8.846;2024-02-21T03:30:48;4.35;;;2.30;;
15952;SDS011;8075;47.766;8.846;2024-02-21T03:33:14;4.77;;;2.57;;
15952;SDS011;8075;47.766;8.846;2024-02-21T03:35:40;4.00;;;2.15;;
15952;SDS011;8075;47.766;8.846;2024-02-21T03:38:06;4.65;;;2.25;;
15952;SDS011;8075;47.766;8.846;2024-02-21T03:40:32;4.00;;;2.27;;
15952;SDS011;8075;47.766;8.846;2024-02-21T03:42:58;5.30;;;2.85;;
15952;SDS011;8075;47.766;8.846;2024-02-21T03:45:24;4.18;;;2.30;;
15952;SDS011;8075;47.766;8.846;2024-02-21T03:47:50;4.57;;;2.72;;
15952;SDS011;8075;47.766;8.846;2024-02-21T03:50:16;4.25;;;2.30;;
15952;SDS011;8075;47.766;8.846;2024-02-21T03:52:42;3.97;;;2.33;;
15952;SDS011;8075;47.766;8.846;2024-02-21T03:55:08;5.85;;;2.60;;
15952;SDS011;8075;47.766;8.846;2024-02-21T03:57:34;5.47;;;2.40;;
15952;SDS011;8075;47.766;8.846;2024-02-21T04:00:00;3.13;;;2.00;;
15952;SDS011;8075;47.766;8.846;2024-02-21T04:02:26;3.47;;;2.03;;
15952;SDS011;8075;47.766;8.846;2024-02-21T04:04:52;3.53;;;2.20;;
15952;SDS011;8075;47.766;8.846;2024-02-21T04:07:18;3.67;;;2.08;;
15952;SDS011;8075;47.766;8.846;2024-02-21T04:09:44;4.47;;;2.53;;
15952;SDS011;8075;47.766;8.846;2024-02-21T04:12:10;4.55;;;2.53;;
15952;SDS011;8075;47.766;8.846;2024-02-21T04:14:36;3.60;;;2.50;;
15952;SDS011;8075;47.766;8.846;2024-02-21T04:17:02;3.33;;;2.30;;
15952;SDS011;8075;47.766;8.846;2024-02-21T04:19:28;3.45;;;2.33;;
15952;SDS011;8075;47.766;8.846;2024-02-21T04:21:56;4.32;;;2.30;;
15952;SDS011;8075;47.766;8.846;2024-02-21T04:24:22;3.55;;;2.17;;
15952;SDS011;8075;47.766;8.846;2024-02-21T04:26:48;4.03;;;2.53;;
15952;SDS011;8075;47.766;8.846;2024-02-21T04:29:14;4.18;;;2.30;;
15952;SDS011;8075;47.766;8.846;2024-02-21T04:31:40;3.88;;;2.50;;
15952;SDS011;8075;47.766;8.846;2024-02-21T04:34:06;3.50;;;2.17;;
15952;SDS011;8075;47.766;8.846;2024-02-21T04:36:32;4.40;;;2.33;;
15952;SDS011;8075;47.766;8.846;2024-02-21T04:38:58;3.90;;;2.47;;
15952;SDS011;8075;47.766;8.846;2024-02-21T04:41:24;4.20;;;2.60;;
15952;SDS011;8075;47.766;8.846;2024-02-21T04:43:50;6.47;;;2.55;;
15952;SDS011;8075;47.766;8.846;2024-02-21T04:46:16;4.43;;;2.60;;
15952;SDS011;8075;47.766;8.846;2024-02-21T04:48:42;4.20;;;2.50;;
15952;SDS011;8075;47.766;8.846;2024-02-21T04:51:08;4.32;;;2.45;;
15952;SDS011;8075;47.766;8.846;2024-02-21T04:53:34;5.20;;;2.65;;
15952;SDS011;8075;47.766;8.846;2024-02-21T04:56:00;3.65;;;2.30;;
15952;SDS011;8075;47.766;8.846;2024-02-21T04:58:26;4.27;;;2.60;;
15952;SDS011;8075;47.766;8.846;2024-02-21T05:00:52;3.30;;;2.17;;
15952;SDS011;8075;47.766;8.846;2024-02-21T05:03:19;6.15;;;2.83;;
15952;SDS011;8075;47.766;8.846;2024-02-21T05:05:45;5.00;;;2.30;;
15952;SDS011;8075;47.766;8.846;2024-02-21T05:08:11;5.60;;;2.57;;
15952;SDS011;8075;47.766;8.846;2024-02-21T05:10:37;5.95;;;2.50;;
15952;SDS011;8075;47.766;8.846;2024-02-21T05:13:04;5.53;;;2.63;;
15952;SDS011;8075;47.766;8.846;2024-02-21T05:15:30;3.53;;;2.25;;
15952;SDS011;8075;47.766;8.846;2024-02-21T05:17:56;4.38;;;2.50;;
15952;SDS011;8075;47.766;8.846;2024-02-21T05:20:22;4.88;;;2.33;;
15952;SDS011;8075;47.766;8.846;2024-02-21T05:22:48;5.30;;;2.35;;
15952;SDS011;8075;47.766;8.846;2024-02-21T05:25:14;5.97;;;2.33;;
15952;SDS011;8075;47.766;8.846;2024-02-21T05:27:40;3.78;;;2.13;;
15952;SDS011;8075;47.766;8.846;2024-02-21T05:30:06;4.57;;;2.45;;
15952;SDS011;8075;47.766;8.846;2024-02-21T05:32:32;4.00;;;2.40;;
15952;SDS011;8075;47.766;8.846;2024-02-21T05:34:58;5.00;;;2.67;;
15952;SDS011;8075;47.766;8.846;2024-02-21T05:37:24;4.47;;;2.42;;
15952;SDS011;8075;47.766;8.846;2024-02-21T05:39:50;5.90;;;2.85;;
15952;SDS011;8075;47.766;8.846;2024-02-21T05:42:16;4.20;;;2.40;;
15952;SDS011;8075;47.766;8.846;2024-02-21T05:44:42;3.58;;;2.25;;
15952;SDS011;8075;47.766;8.846;2024-02-21T05:47:08;6.38;;;2.58;;
15952;SDS011;8075;47.766;8.846;2024-02-21T05:49:35;5.65;;;2.50;;
15952;SDS011;8075;47.766;8.846;2024-02-21T05:52:01;3.58;;;2.35;;
15952;SDS011;8075;47.766;8.846;2024-02-21T05:54:27;6.10;;;2.33;;
15952;SDS011;8075;47.766;8.846;2024-02-21T05:56:53;5.13;;;2.60;;
15952;SDS011;8075;47.766;8.846;2024-02-21T05:59:19;4.55;;;3.05;;
15952;SDS011;8075;47.766;8.846;2024-02-21T06:01:45;5.13;;;2.97;;
15952;SDS011;8075;47.766;8.846;2024-02-21T06:04:21;5.95;;;2.70;;
15952;SDS011;8075;47.766;8.846;2024-02-21T06:06:47;5.50;;;2.70;;
15952;SDS011;8075;47.766;8.846;2024-02-21T06:09:13;3.88;;;2.83;;
15952;SDS011;8075;47.766;8.846;2024-02-21T06:11:39;4.72;;;2.92;;
15952;SDS011;8075;47.766;8.846;2024-02-21T06:14:05;4.70;;;2.97;;
15952;SDS011;8075;47.766;8.846;2024-02-21T06:16:31;5.32;;;2.70;;
15952;SDS011;8075;47.766;8.846;2024-02-21T06:18:57;5.40;;;2.92;;
15952;SDS011;8075;47.766;8.846;2024-02-21T06:21:22;5.33;;;2.53;;
15952;SDS011;8075;47.766;8.846;2024-02-21T06:23:48;5.85;;;2.67;;
15952;SDS011;8075;47.766;8.846;2024-02-21T06:26:14;3.10;;;2.63;;
15952;SDS011;8075;47.766;8.846;2024-02-21T06:28:40;5.30;;;2.70;;
15952;SDS011;8075;47.766;8.846;2024-02-21T06:31:07;4.93;;;2.90;;
15952;SDS011;8075;47.766;8.846;2024-02-21T06:33:33;4.32;;;2.90;;
15952;SDS011;8075;47.766;8.846;2024-02-21T06:35:59;5.40;;;2.92;;
15952;SDS011;8075;47.766;8.846;2024-02-21T06:38:25;5.53;;;3.33;;
15952;SDS011;8075;47.766;8.846;2024-02-21T06:40:51;5.57;;;3.25;;
15952;SDS011;8075;47.766;8.846;2024-02-21T06:43:19;6.38;;;3.20;;
15952;SDS011;8075;47.766;8.846;2024-02-21T06:45:45;4.72;;;3.20;;
15952;SDS011;8075;47.766;8.846;2024-02-21T06:48:19;6.40;;;3.67;;
15952;SDS011;8075;47.766;8.846;2024-02-21T06:50:45;4.77;;;3.40;;
15952;SDS011;8075;47.766;8.846;2024-02-21T06:53:11;4.97;;;3.63;;
15952;SDS011;8075;47.766;8.846;2024-02-21T06:55:37;4.83;;;3.20;;
15952;SDS011;8075;47.766;8.846;2024-02-21T06:58:03;4.72;;;3.30;;
15952;SDS011;8075;47.766;8.846;2024-02-21T07:00:29;4.93;;;3.53;;
15952;SDS011;8075;47.766;8.846;2024-02-21T07:02:55;5.97;;;3.70;;
15952;SDS011;8075;47.766;8.846;2024-02-21T07:05:21;6.22;;;4.40;;
15952;SDS011;8075;47.766;8.846;2024-02-21T07:07:47;6.38;;;3.38;;
15952;SDS011;8075;47.766;8.846;2024-02-21T07:10:13;4.40;;;3.20;;
15952;SDS011;8075;47.766;8.846;2024-02-21T07:12:39;4.20;;;3.30;;
15952;SDS011;8075;47.766;8.846;2024-02-21T07:15:08;9.27;;;3.90;;
15952;SDS011;8075;47.766;8.846;2024-02-21T07:17:34;10.45;;;7.07;;
15952;SDS011;8075;47.766;8.846;2024-02-21T07:20:00;7.30;;;3.53;;
15952;SDS011;8075;47.766;8.846;2024-02-21T07:22:26;7.03;;;4.45;;
15952;SDS011;8075;47.766;8.846;2024-02-21T07:24:52;4.53;;;3.20;;
15952;SDS011;8075;47.766;8.846;2024-02-21T07:27:18;3.65;;;3.13;;
15952;SDS011;8075;47.766;8.846;2024-02-21T07:29:44;4.37;;;3.30;;
15952;SDS011;8075;47.766;8.846;2024-02-21T07:32:12;4.63;;;2.97;;
15952;SDS011;8075;47.766;8.846;2024-02-21T07:34:38;6.00;;;3.50;;
15952;SDS011;8075;47.766;8.846;2024-02-21T07:37:04;5.30;;;3.65;;
15952;SDS011;8075;47.766;8.846;2024-02-21T07:39:30;4.22;;;3.58;;
15952;SDS011;8075;47.766;8.846;2024-02-21T07:41:56;5.80;;;3.50;;
15952;SDS011;8075;47.766;8.846;2024-02-21T07:44:22;5.68;;;3.10;;
15952;SDS011;8075;47.766;8.846;2024-02-21T07:46:48;5.40;;;3.53;;
15952;SDS011;8075;47.766;8.846;2024-02-21T07:49:14;4.93;;;3.08;;
15952;SDS011;8075;47.766;8.846;2024-02-21T07:51:40;8.00;;;6.28;;
15952;SDS011;8075;47.766;8.846;2024-02-21T07:54:07;29.73;;;19.40;;
15952;SDS011;8075;47.766;8.846;2024-02-21T07:56:33;8.50;;;4.97;;
15952;SDS011;8075;47.766;8.846;2024-02-21T07:58:59;6.63;;;4.20;;
15952;SDS011;8075;47.766;8.846;2024-02-21T08:01:25;5.82;;;4.00;;
15952;SDS011;8075;47.766;8.846;2024-02-21T08:03:51;6.78;;;3.92;;
15952;SDS011;8075;47.766;8.846;2024-02-21T08:06:17;5.70;;;4.10;;
15952;SDS011;8075;47.766;8.846;2024-02-21T08:08:43;9.40;;;5.68;;
15952;SDS011;8075;47.766;8.846;2024-02-21T08:11:09;5.70;;;4.07;;
15952;SDS011;8075;47.766;8.846;2024-02-21T08:13:34;8.02;;;4.80;;
15952;SDS011;8075;47.766;8.846;2024-02-21T08:16:00;8.63;;;4.38;;
15952;SDS011;8075;47.766;8.846;2024-02-21T08:18:28;8.60;;;4.78;;
15952;SDS011;8075;47.766;8.846;2024-02-21T08:20:54;7.85;;;4.60;;
15952;SDS011;8075;47.766;8.846;2024-02-21T08:23:23;6.70;;;5.00;;
15952;SDS011;8075;47.766;8.846;2024-02-21T08:25:49;8.00;;;5.20;;
15952;SDS011;8075;47.766;8.846;2024-02-21T08:28:15;7.43;;;5.32;;
15952;SDS011;8075;47.766;8.846;2024-02-21T08:30:42;6.78;;;5.47;;
15952;SDS011;8075;47.766;8.846;2024-02-21T08:33:13;7.47;;;5.13;;
15952;SDS011;8075;47.766;8.846;2024-02-21T08:35:39;8.32;;;5.53;;
15952;SDS011;8075;47.766;8.846;2024-02-21T08:38:05;7.32;;;5.60;;
15952;SDS011;8075;47.766;8.846;2024-02-21T08:40:31;7.90;;;5.27;;
15952;SDS011;8075;47.766;8.846;2024-02-21T08:43:00;7.50;;;6.03;;
15952;SDS011;8075;47.766;8.846;2024-02-21T08:45:26;7.38;;;5.50;;
15952;SDS011;8075;47.766;8.846;2024-02-21T08:47:52;7.45;;;4.85;;
15952;SDS011;8075;47.766;8.846;2024-02-21T08:50:18;7.45;;;4.93;;
15952;SDS011;8075;47.766;8.846;2024-02-21T08:52:44;6.32;;;4.40;;
15952;SDS011;8075;47.766;8.846;2024-02-21T08:55:10;7.20;;;4.70;;
15952;SDS011;8075;47.766;8.846;2024-02-21T08:57:35;7.07;;;4.80;;
15952;SDS011;8075;47.766;8.846;2024-02-21T09:00:05;6.80;;;5.15;;
15952;SDS011;8075;47.766;8.846;2024-02-21T09:02:43;6.72;;;4.70;;
15952;SDS011;8075;47.766;8.846;2024-02-21T09:05:09;5.85;;;5.13;;
15952;SDS011;8075;47.766;8.846;2024-02-21T09:07:35;7.33;;;4.70;;
15952;SDS011;8075;47.766;8.846;2024-02-21T09:10:01;4.95;;;4.45;;
15952;SDS011;8075;47.766;8.846;2024-02-21T09:12:28;6.53;;;4.43;;
15952;SDS011;8075;47.766;8.846;2024-02-21T09:14:54;4.70;;;3.75;;
15952;SDS011;8075;47.766;8.846;2024-02-21T09:17:20;5.72;;;3.90;;
15952;SDS011;8075;47.766;8.846;2024-02-21T09:19:47;6.30;;;3.80;;
15952;SDS011;8075;47.766;8.846;2024-02-21T09:22:13;4.65;;;3.38;;
15952;SDS011;8075;47.766;8.846;2024-02-21T09:24:39;4.35;;;3.90;;
15952;SDS011;8075;47.766;8.846;2024-02-21T09:27:05;5.03;;;3.95;;
15952;SDS011;8075;47.766;8.846;2024-02-21T09:29:31;4.28;;;3.65;;
15952;SDS011;8075;47.766;8.846;2024-02-21T09:32:01;5.18;;;3.80;;
15952;SDS011;8075;47.766;8.846;2024-02-21T09:34:27;4.63;;;3.70;;
15952;SDS011;8075;47.766;8.846;2024-02-21T09:36:53;3.70;;;3.15;;
15952;SDS011;8075;47.766;8.846;2024-02-21T09:39:19;5.80;;;3.40;;
15952;SDS011;8075;47.766;8.846;2024-02-21T09:41:48;5.70;;;3.42;;
15952;SDS011;8075;47.766;8.846;2024-02-21T09:44:24;3.80;;;3.45;;
15952;SDS011;8075;47.766;8.846;2024-02-21T09:47:03;8.45;;;3.47;;
15952;SDS011;8075;47.766;8.846;2024-02-21T09:49:33;2.70;;;2.50;;
15952;SDS011;8075;47.766;8.846;2024-02-21T09:52:02;3.00;;;2.70;;
15952;SDS011;8075;47.766;8.846;2024-02-21T09:54:28;4.32;;;3.15;;
15952;SDS011;8075;47.766;8.846;2024-02-21T09:56:57;4.00;;;2.45;;
15952;SDS011;8075;47.766;8.846;2024-02-21T09:59:23;2.85;;;2.50;;
15952;SDS011;8075;47.766;8.846;2024-02-21T10:01:50;3.80;;;2.83;;
15952;SDS011;8075;47.766;8.846;2024-02-21T10:04:16;2.40;;;2.17;;
15952;SDS011;8075;47.766;8.846;2024-02-21T10:06:43;4.50;;;3.03;;
15952;SDS011;8075;47.766;8.846;2024-02-21T10:09:19;2.67;;;2.15;;
15952;SDS011;8075;47.766;8.846;2024-02-21T10:11:46;3.00;;;2.25;;
15952;SDS011;8075;47.766;8.846;2024-02-21T10:14:11;2.75;;;2.10;;
15952;SDS011;8075;47.766;8.846;2024-02-21T10:16:37;3.30;;;2.30;;
15952;SDS011;8075;47.766;8.846;2024-02-21T10:19:04;3.65;;;2.08;;
15952;SDS011;8075;47.766;8.846;2024-02-21T10:21:30;2.88;;;2.67;;
15952;SDS011;8075;47.766;8.846;2024-02-21T10:23:56;4.28;;;2.85;;
15952;SDS011;8075;47.766;8.846;2024-02-21T10:26:22;3.83;;;2.67;;
15952;SDS011;8075;47.766;8.846;2024-02-21T10:28:48;3.47;;;2.50;;
15952;SDS011;8075;47.766;8.846;2024-02-21T10:31:25;3.50;;;2.40;;
15952;SDS011;8075;47.766;8.846;2024-02-21T10:33:58;3.28;;;2.35;;
15952;SDS011;8075;47.766;8.846;2024-02-21T10:36:25;3.50;;;2.17;;
15952;SDS011;8075;47.766;8.846;2024-02-21T10:38:51;4.40;;;2.30;;
15952;SDS011;8075;47.766;8.846;2024-02-21T10:41:19;2.70;;;2.22;;
15952;SDS011;8075;47.766;8.846;2024-02-21T10:43:46;2.63;;;2.10;;
15952;SDS011;8075;47.766;8.846;2024-02-21T10:46:14;3.50;;;2.33;;
15952;SDS011;8075;47.766;8.846;2024-02-21T10:48:44;3.35;;;2.25;;
15952;SDS011;8075;47.766;8.846;2024-02-21T10:56:33;2.80;;;2.20;;
15952;SDS011;8075;47.766;8.846;2024-02-21T10:59:02;3.50;;;2.42;;
15952;SDS011;8075;47.766;8.846;2024-02-21T11:01:28;2.72;;;2.20;;
15952;SDS011;8075;47.766;8.846;2024-02-21T11:03:57;3.50;;;2.42;;
15952;SDS011;8075;47.766;8.846;2024-02-21T11:06:23;2.97;;;2.17;;
15952;SDS011;8075;47.766;8.846;2024-02-21T11:09:07;3.00;;;2.20;;
15952;SDS011;8075;47.766;8.846;2024-02-21T11:11:40;3.53;;;2.55;;
15952;SDS011;8075;47.766;8.846;2024-02-21T11:16:36;3.50;;;2.20;;
15952;SDS011;8075;47.766;8.846;2024-02-21T11:19:24;2.53;;;2.00;;
15952;SDS011;8075;47.766;8.846;2024-02-21T11:21:50;2.78;;;1.90;;
15952;SDS011;8075;47.766;8.846;2024-02-21T11:24:26;2.00;;;1.80;;
15952;SDS011;8075;47.766;8.846;2024-02-21T11:26:54;1.93;;;1.73;;
15952;SDS011;8075;47.766;8.846;2024-02-21T11:29:23;2.00;;;1.80;;
15952;SDS011;8075;47.766;8.846;2024-02-21T11:31:53;3.05;;;1.73;;
15952;SDS011;8075;47.766;8.846;2024-02-21T11:34:19;2.53;;;1.83;;
15952;SDS011;8075;47.766;8.846;2024-02-21T11:36:49;6.63;;;1.92;;
15952;SDS011;8075;47.766;8.846;2024-02-21T11:39:22;3.03;;;2.25;;
15952;SDS011;8075;47.766;8.846;2024-02-21T11:42:01;2.60;;;2.15;;
15952;SDS011;8075;47.766;8.846;2024-02-21T11:44:28;2.80;;;1.80;;
15952;SDS011;8075;47.766;8.846;2024-02-21T11:46:54;2.33;;;1.90;;
15952;SDS011;8075;47.766;8.846;2024-02-21T11:49:20;2.42;;;1.90;;
15952;SDS011;8075;47.766;8.846;2024-02-21T11:51:46;3.45;;;2.08;;
15952;SDS011;8075;47.766;8.846;2024-02-21T11:54:13;2.65;;;2.17;;
15952;SDS011;8075;47.766;8.846;2024-02-21T11:56:42;2.45;;;1.90;;
15952;SDS011;8075;47.766;8.846;2024-02-21T11:59:08;2.20;;;2.00;;
15952;SDS011;8075;47.766;8.846;2024-02-21T12:01:34;3.58;;;2.30;;
15952;SDS011;8075;47.766;8.846;2024-02-21T12:04:00;2.42;;;2.10;;
15952;SDS011;8075;47.766;8.846;2024-02-21T12:06:26;3.20;;;2.10;;
15952;SDS011;8075;47.766;8.846;2024-02-21T12:08:52;5.20;;;2.35;;
15952;SDS011;8075;47.766;8.846;2024-02-21T12:11:23;2.60;;;2.10;;
15952;SDS011;8075;47.766;8.846;2024-02-21T12:13:59;4.05;;;1.80;;
15952;SDS011;8075;47.766;8.846;2024-02-21T12:16:26;2.25;;;1.83;;
15952;SDS011;8075;47.766;8.846;2024-02-21T12:18:54;2.53;;;2.10;;
15952;SDS011;8075;47.766;8.846;2024-02-21T12:21:23;2.27;;;1.70;;
15952;SDS011;8075;47.766;8.846;2024-02-21T12:23:49;2.50;;;2.28;;
15952;SDS011;8075;47.766;8.846;2024-02-21T12:26:15;2.83;;;1.80;;
15952;SDS011;8075;47.766;8.846;2024-02-21T12:28:41;2.10;;;1.90;;
15952;SDS011;8075;47.766;8.846;2024-02-21T12:31:07;2.30;;;1.90;;
15952;SDS011;8075;47.766;8.846;2024-02-21T12:33:33;2.92;;;2.20;;
15952;SDS011;8075;47.766;8.846;2024-02-21T12:36:00;3.17;;;2.47;;
15952;SDS011;8075;47.766;8.846;2024-02-21T12:38:26;3.73;;;2.03;;
15952;SDS011;8075;47.766;8.846;2024-02-21T12:40:52;4.95;;;2.70;;
15952;SDS011;8075;47.766;8.846;2024-02-21T12:43:18;2.03;;;1.90;;
15952;SDS011;8075;47.766;8.846;2024-02-21T12:45:44;3.55;;;2.53;;
15952;SDS011;8075;47.766;8.846;2024-02-21T12:48:10;4.03;;;2.13;;
15952;SDS011;8075;47.766;8.846;2024-02-21T12:50:38;3.15;;;2.13;;
15952;SDS011;8075;47.766;8.846;2024-02-21T12:53:04;3.93;;;1.90;;
15952;SDS011;8075;47.766;8.846;2024-02-21T12:55:30;2.53;;;2.20;;
15952;SDS011;8075;47.766;8.846;2024-02-21T12:57:56;2.72;;;2.00;;
15952;SDS011;8075;47.766;8.846;2024-02-21T13:00:22;2.30;;;1.90;;
15952;SDS011;8075;47.766;8.846;2024-02-21T13:02:51;2.65;;;2.10;;
15952;SDS011;8075;47.766;8.846;2024-02-21T13:05:17;2.70;;;1.85;;
15952;SDS011;8075;47.766;8.846;2024-02-21T13:07:43;2.95;;;1.90;;
15952;SDS011;8075;47.766;8.846;2024-02-21T13:10:09;3.22;;;2.00;;
15952;SDS011;8075;47.766;8.846;2024-02-21T13:12:35;3.17;;;2.20;;
15952;SDS011;8075;47.766;8.846;2024-02-21T13:15:02;3.67;;;2.10;;
15952;SDS011;8075;47.766;8.846;2024-02-21T13:17:28;2.20;;;2.00;;
15952;SDS011;8075;47.766;8.846;2024-02-21T13:19:56;2.83;;;2.13;;
15952;SDS011;8075;47.766;8.846;2024-02-21T13:22:22;3.00;;;2.20;;
15952;SDS011;8075;47.766;8.846;2024-02-21T13:24:51;2.78;;;2.20;;
15952;SDS011;8075;47.766;8.846;2024-02-21T13:27:17;3.40;;;1.90;;
15952;SDS011;8075;47.766;8.846;2024-02-21T13:29:43;1.80;;;1.60;;
15952;SDS011;8075;47.766;8.846;2024-02-21T13:32:10;2.00;;;1.80;;
15952;SDS011;8075;47.766;8.846;2024-02-21T13:34:36;3.03;;;2.28;;
15952;SDS011;8075;47.766;8.846;2024-02-21T13:37:02;1.98;;;1.80;;
15952;SDS011;8075;47.766;8.846;2024-02-21T13:39:29;3.08;;;1.83;;
15952;SDS011;8075;47.766;8.846;2024-02-21T13:41:56;3.67;;;1.90;;
15952;SDS011;8075;47.766;8.846;2024-02-21T13:44:24;2.80;;;1.80;;
15952;SDS011;8075;47.766;8.846;2024-02-21T13:46:50;2.25;;;1.75;;
15952;SDS011;8075;47.766;8.846;2024-02-21T13:49:16;3.10;;;2.00;;
15952;SDS011;8075;47.766;8.846;2024-02-21T13:51:42;2.38;;;1.75;;
15952;SDS011;8075;47.766;8.846;2024-02-21T13:54:09;3.15;;;1.85;;
15952;SDS011;8075;47.766;8.846;2024-02-21T13:56:36;2.10;;;1.90;;
15952;SDS011;8075;47.766;8.846;2024-02-21T13:59:02;2.65;;;1.70;;
15952;SDS011;8075;47.766;8.846;2024-02-21T14:01:29;3.10;;;1.73;;
15952;SDS011;8075;47.766;8.846;2024-02-21T14:03:58;2.85;;;1.65;;
15952;SDS011;8075;47.766;8.846;2024-02-21T14:06:24;2.58;;;1.90;;
15952;SDS011;8075;47.766;8.846;2024-02-21T14:08:50;3.40;;;1.50;;
15952;SDS011;8075;47.766;8.846;2024-02-21T14:11:16;2.60;;;1.80;;
15952;SDS011;8075;47.766;8.846;2024-02-21T14:13:42;3.80;;;2.50;;
15952;SDS011;8075;47.766;8.846;2024-02-21T14:16:11;3.17;;;2.00;;
15952;SDS011;8075;47.766;8.846;2024-02-21T14:18:38;2.35;;;1.98;;
15952;SDS011;8075;47.766;8.846;2024-02-21T14:21:06;2.93;;;2.03;;
15952;SDS011;8075;47.766;8.846;2024-02-21T14:23:32;2.50;;;2.03;;
15952;SDS011;8075;47.766;8.846;2024-02-21T14:25:58;2.35;;;1.88;;
15952;SDS011;8075;47.766;8.846;2024-02-21T14:28:24;3.30;;;2.00;;
15952;SDS011;8075;47.766;8.846;2024-02-21T14:30:50;2.13;;;1.70;;
15952;SDS011;8075;47.766;8.846;2024-02-21T14:33:18;1.80;;;1.35;;
15952;SDS011;8075;47.766;8.846;2024-02-21T14:35:44;2.92;;;2.10;;
15952;SDS011;8075;47.766;8.846;2024-02-21T14:38:10;2.57;;;1.57;;
15952;SDS011;8075;47.766;8.846;2024-02-21T14:40:36;2.40;;;1.60;;
15952;SDS011;8075;47.766;8.846;2024-02-21T14:43:02;3.47;;;1.80;;
15952;SDS011;8075;47.766;8.846;2024-02-21T14:45:28;2.03;;;1.70;;
15952;SDS011;8075;47.766;8.846;2024-02-21T14:47:54;2.45;;;1.70;;
15952;SDS011;8075;47.766;8.846;2024-02-21T14:50:20;2.45;;;1.60;;
15952;SDS011;8075;47.766;8.846;2024-02-21T14:52:48;2.97;;;1.67;;
15952;SDS011;8075;47.766;8.846;2024-02-21T14:55:14;1.92;;;1.70;;
15952;SDS011;8075;47.766;8.846;2024-02-21T14:57:40;3.00;;;2.00;;
15952;SDS011;8075;47.766;8.846;2024-02-21T15:00:09;3.85;;;2.33;;
15952;SDS011;8075;47.766;8.846;2024-02-21T15:02:35;3.07;;;2.33;;
15952;SDS011;8075;47.766;8.846;2024-02-21T15:05:01;3.10;;;2.30;;